Stephen R Warden — WDC6523 — position and weather

sailwx.info

Track history (hours):
 
Tides and Currents Weather Stations Pressure Air Temp Water Temp Dewpoint Dewpoint Depression Visibility Wind Speed Wind Dir Waves Ship Positions

Stephen R Warden

Owner: American Commercial Lines LLC, Jeffersonvile, IN. More information available from US FCC via Universal Licensing System and Coast Guard Vessel Documentation Center.

Last reported at 2016-May-26 21:33 UTC. Time now 2016-May-26 22:28 UTC.
Position N 29°57' W 090°09'.

Length 37 m; draft 3 m.

Type: Towing. MMSI: 367057460.

Date/timePositionNaut miles runAvg speedWind from/ knotsBaromVisibWave heightAir tempDewpointWater temp
2016-May-26 21:33N 29°57' W 090°09'2 1.8
2016-May-26 20:24N 29°56' W 090°11'0 0.0
2016-May-26 02:29N 29°56' W 090°11'0 0.0
2016-May-26 01:30N 29°56' W 090°11'0 0.0
2016-May-26 00:33N 29°56' W 090°11'1 0.8
2016-May-25 23:33N 29°57' W 090°10'1 0.5
2016-May-25 22:33N 29°57' W 090°09'3 3.2
2016-May-25 21:33N 29°55' W 090°07'5 5.1
2016-May-25 20:33N 29°57' W 090°02'5 5.4
2016-May-25 19:33N 29°55' W 089°56'3 2.8
2016-May-25 18:33N 29°53' W 089°57'5 5.0
2016-May-25 17:33N 29°49' W 090°00'5 0.5
2016-May-25 07:19N 29°43' W 089°59'5 6.5
2016-May-25 06:32N 29°48' W 090°00'5 5.6
2016-May-25 05:33N 29°52' W 089°55'5 4.9
2016-May-25 04:33N 29°56' W 089°59'1 0.6
2016-May-25 03:33N 29°56' W 089°59'1 0.9
2016-May-25 02:33N 29°57' W 090°00'6 6.2
2016-May-25 01:33N 29°55' W 090°07'4 4.0
2016-May-25 00:33N 29°56' W 090°12'0 0.1
2016-May-24 23:33N 29°56' W 090°12'0 0.0
2016-May-24 22:32N 29°56' W 090°12'2 2.0
2016-May-24 21:22N 29°57' W 090°14'1 0.0
2016-May-23 21:29N 29°57' W 090°13'2 1.8
2016-May-23 20:33N 29°56' W 090°12'0 0.0
2016-May-23 19:33N 29°56' W 090°12'0 0.1
2016-May-23 18:31N 29°56' W 090°12'1 0.1
2016-May-23 12:15N 29°56' W 090°11'1 1.2
2016-May-23 11:32N 29°56' W 090°12'0 0.0
2016-May-23 10:33N 29°56' W 090°12'0 0.0
2016-May-23 09:32N 29°56' W 090°12'0 0.0
2016-May-23 08:29N 29°56' W 090°12'0 0.0
2016-May-23 07:20N 29°56' W 090°12'3 0.1
2016-May-22 09:33N 29°56' W 090°08'3 2.9
2016-May-22 08:33N 29°55' W 090°06'3 3.2
2016-May-22 07:33N 29°57' W 090°04'2 2.4
2016-May-22 06:33N 29°57' W 090°01'2 2.3
2016-May-22 05:33N 29°55' W 089°58'8 1.2
2016-May-21 23:22N 29°48' W 090°01'8 0.9
2016-May-21 13:33N 29°56' W 090°00'0 0.2
2016-May-21 12:33N 29°57' W 090°01'0 0.2
2016-May-21 11:33N 29°56' W 090°01'0 0.0
2016-May-21 10:33N 29°56' W 090°01'0 0.1
2016-May-21 09:34N 29°56' W 090°01'0 0.0
2016-May-21 08:33N 29°57' W 090°01'3 2.7
2016-May-21 07:33N 29°57' W 090°03'5 5.2
2016-May-21 06:33N 29°57' W 090°09'3 2.6
2016-May-21 05:33N 29°55' W 090°12'  
2016-May-17 08:23N 29°57' W 090°18'4 4.4
2016-May-17 07:33N 29°58' W 090°14'3 3.1
2016-May-17 06:33N 29°56' W 090°12'1 1.0
2016-May-17 05:33N 29°56' W 090°11'0 0.4
2016-May-17 04:33N 29°56' W 090°11'2 2.3
2016-May-17 03:34N 29°57' W 090°08'4 3.6
2016-May-17 02:33N 29°55' W 090°05'3 3.3
2016-May-17 01:33N 29°57' W 090°02'1 1.3
2016-May-17 00:33N 29°57' W 090°01'0 0.0
2016-May-16 23:33N 29°57' W 090°01'1 1.2
2016-May-16 22:33N 29°56' W 089°60'0 0.3
2016-May-16 21:34N 29°56' W 089°59'  
Track history (hours):
 
Tides and Currents Weather Stations Pressure Air Temp Water Temp Dewpoint Dewpoint Depression Visibility Wind Speed Wind Dir Waves Ship Positions

Stephen R Warden

Owner: American Commercial Lines LLC, Jeffersonvile, IN. More information available from US FCC via Universal Licensing System and Coast Guard Vessel Documentation Center.

Last reported at 2016-May-26 21:33 UTC. Time now 2016-May-26 22:28 UTC.
Position N 29°57' W 090°09'.

Length 37 m; draft 3 m.

Type: Towing. MMSI: 367057460.

Date/timePositionNaut miles runAvg speedWind from/ knotsBaromVisibWave heightAir tempDewpointWater temp
2016-May-26 21:33N 29°57' W 090°09'2 1.8
2016-May-26 20:24N 29°56' W 090°11'0 0.0
2016-May-26 02:29N 29°56' W 090°11'0 0.0
2016-May-26 01:30N 29°56' W 090°11'0 0.0
2016-May-26 00:33N 29°56' W 090°11'1 0.8
2016-May-25 23:33N 29°57' W 090°10'1 0.5
2016-May-25 22:33N 29°57' W 090°09'3 3.2
2016-May-25 21:33N 29°55' W 090°07'5 5.1
2016-May-25 20:33N 29°57' W 090°02'5 5.4
2016-May-25 19:33N 29°55' W 089°56'3 2.8
2016-May-25 18:33N 29°53' W 089°57'5 5.0
2016-May-25 17:33N 29°49' W 090°00'5 0.5
2016-May-25 07:19N 29°43' W 089°59'5 6.5
2016-May-25 06:32N 29°48' W 090°00'5 5.6
2016-May-25 05:33N 29°52' W 089°55'5 4.9
2016-May-25 04:33N 29°56' W 089°59'1 0.6
2016-May-25 03:33N 29°56' W 089°59'1 0.9
2016-May-25 02:33N 29°57' W 090°00'6 6.2
2016-May-25 01:33N 29°55' W 090°07'4 4.0
2016-May-25 00:33N 29°56' W 090°12'0 0.1
2016-May-24 23:33N 29°56' W 090°12'0 0.0
2016-May-24 22:32N 29°56' W 090°12'2 2.0
2016-May-24 21:22N 29°57' W 090°14'1 0.0
2016-May-23 21:29N 29°57' W 090°13'2 1.8
2016-May-23 20:33N 29°56' W 090°12'0 0.0
2016-May-23 19:33N 29°56' W 090°12'0 0.1
2016-May-23 18:31N 29°56' W 090°12'1 0.1
2016-May-23 12:15N 29°56' W 090°11'1 1.2
2016-May-23 11:32N 29°56' W 090°12'0 0.0
2016-May-23 10:33N 29°56' W 090°12'0 0.0
2016-May-23 09:32N 29°56' W 090°12'0 0.0
2016-May-23 08:29N 29°56' W 090°12'0 0.0
2016-May-23 07:20N 29°56' W 090°12'3 0.1
2016-May-22 09:33N 29°56' W 090°08'3 2.9
2016-May-22 08:33N 29°55' W 090°06'3 3.2
2016-May-22 07:33N 29°57' W 090°04'2 2.4
2016-May-22 06:33N 29°57' W 090°01'2 2.3
2016-May-22 05:33N 29°55' W 089°58'8 1.2
2016-May-21 23:22N 29°48' W 090°01'8 0.9
2016-May-21 13:33N 29°56' W 090°00'0 0.2
2016-May-21 12:33N 29°57' W 090°01'0 0.2
2016-May-21 11:33N 29°56' W 090°01'0 0.0
2016-May-21 10:33N 29°56' W 090°01'0 0.1
2016-May-21 09:34N 29°56' W 090°01'0 0.0
2016-May-21 08:33N 29°57' W 090°01'3 2.7
2016-May-21 07:33N 29°57' W 090°03'5 5.2
2016-May-21 06:33N 29°57' W 090°09'3 2.6
2016-May-21 05:33N 29°55' W 090°12'  
2016-May-17 08:23N 29°57' W 090°18'4 4.4
2016-May-17 07:33N 29°58' W 090°14'3 3.1
2016-May-17 06:33N 29°56' W 090°12'1 1.0
2016-May-17 05:33N 29°56' W 090°11'0 0.4
2016-May-17 04:33N 29°56' W 090°11'2 2.3
2016-May-17 03:34N 29°57' W 090°08'4 3.6
2016-May-17 02:33N 29°55' W 090°05'3 3.3
2016-May-17 01:33N 29°57' W 090°02'1 1.3
2016-May-17 00:33N 29°57' W 090°01'0 0.0
2016-May-16 23:33N 29°57' W 090°01'1 1.2
2016-May-16 22:33N 29°56' W 089°60'0 0.3
2016-May-16 21:34N 29°56' W 089°59'  

Dump ship's entire track history